Pine River, MN

12:38 PM CDT on March 29, 2015 (GMT -0500)
Pine River Regional | | Change Station
CLOSE
Current Station
Airport
Location: Pine River,
Elevation: 1296 ft
Nearby Weather Stations

Elev 1296 ft 46.72 °N, 94.38 °W | Updated 4 minutes ago

Mostly Cloudy
Mostly Cloudy
43 °F
Feels Like 36 °F
N
14
Wind Variable Wind from NW
Gusts 34 mph

Today
High -- | Low -- °F
--% Chance of Precip.
Yesterday
High -- | Low -- °F
Precip. -- in
7:03 AM 7:42 PM
Waxing Gibbous, 73% visible
Pressure 29.71 in
Visibility 10.0 miles
Clouds Mostly Cloudy 2800 ft
Mostly Cloudy 3300 ft
Windchill 36 °F
Dew Point 34 °F
Humidity 70%
Rainfall 0.15 in
Snow Depth Not available.
UV 4 out of 12
Pollen .90 out of 12
Air Quality Not available.
Flu Activity Not available.
METAR KPWC 291734Z AUTO 32012G30KT 10SM BKN028 BKN033 06/01 A2971 RMK AO2

More Conditions Fewer Conditions

Pressure 29.71 in
Visibility 10.0 miles
Clouds Mostly Cloudy 2800 ft
Mostly Cloudy 3300 ft
Windchill 36 °F
Dew Point 34 °F
Humidity 70%
Rainfall 0.15 in
Snow Depth Not available.
UV 4 out of 12
Pollen .90 out of 12
Air Quality Not available.
Flu Activity Not available.
METAR KPWC 291734Z AUTO 32012G30KT 10SM BKN028 BKN033 06/01 A2971 RMK AO2

More Conditions Fewer Conditions

10-Day Weather Forecast

Almanac

Astronomy

Mar. 29, 2015 Rise Set
Actual Time
Civil Twilight
Nautical Twilight
Astronomical Twilight
Moon
Length of Visible Light
Length of Day
Tomorrow will be .
, % of the Moon is Illuminated

Today's Extremes

State Highs State Lows

Community

WunderPhotos

Upload Photos

1,809,302 photos uploaded!

WunderBlogs® & News

Nearby

Air Quality

  Air Quality AQ Index Pollutant
Not available.

Snow Depth

Station Depth Elevation

Earthquake Activity

City Distance Mag. Time & Date
Minimum magnitude displayed is 2.5.

Coastal Water Temperatures

Place Temperature

Stations

Nearby Weather Stations

Station Location Temp. Windchill Dew Point Humidity Wind Precip. Elev Updated Type